Ottawa, OH

10:25 PM EDT on September 20, 2014 (GMT -0400)
Kalida Local Schools | Change Station
CLOSE
Current Station
Personal Weather Station
Location: Kalida, OH
Elevation: 725 ft
Nearby Weather Stations

Elev 725 ft 40.98 °N, 84.20 °W | Updated 3 minutes ago

Rain
Rain
64.1 °F
Feels Like 64.1 °F
N
2.0
Wind Variable Wind from South

Today
High -- | Low -- °F
--% Chance of Precip.
Yesterday
High -- | Low -- °F
Precip. -- in
7:21 AM 7:36 PM
Waning Crescent, 9% visible
Pressure 29.88 in
Visibility 5.0 miles
Clouds Mostly Cloudy 7500 ft
Overcast 9000 ft
Dew Point 62 °F
Humidity 94%
Rainfall 0.00 in
Snow Depth Not available.
UV 0 out of 12
Pollen 4.80 out of 12
Air Quality Not available.
Flu Activity Not available.
METAR KFDY 210153Z AUTO 21009KT 5SM RA BR BKN075 OVC090 18/17 A2990 RMK AO2 LTG DSNT SE SLP119 P0020 T01830167

More Conditions Fewer Conditions

Pressure 29.88 in
Visibility 5.0 miles
Clouds Mostly Cloudy 7500 ft
Overcast 9000 ft
Dew Point 62 °F
Humidity 94%
Rainfall 0.00 in
Snow Depth Not available.
UV 0 out of 12
Pollen 4.80 out of 12
Air Quality Not available.
Flu Activity Not available.
METAR KFDY 210153Z AUTO 21009KT 5SM RA BR BKN075 OVC090 18/17 A2990 RMK AO2 LTG DSNT SE SLP119 P0020 T01830167

More Conditions Fewer Conditions

10-Day Weather Forecast

Almanac

Astronomy

Sep. 20, 2014 Rise Set
Actual Time 7:21 AM EDT 7:36 PM EDT
Civil Twilight 6:54 AM EDT 8:04 PM EDT
Nautical Twilight 6:21 AM EDT 8:36 PM EDT
Astronomical Twilight 5:48 AM EDT 9:09 PM EDT
Moon 3:58 AM EDT (9/20) 5:40 PM EDT (9/20)
Length of Visible Light 13h 10m
Length of Day
12h 15m
Tomorrow will be 2m 42s shorter.
Waning Crescent, 9% of the Moon is Illuminated
Today
Waning Crescent
Sep 24
New
Oct 1
First Quarter
Oct 8
Full
Oct 15
Last Quarter

Today's Extremes

State Highs State Lows

Community

WunderPhotos

Upload Photos

1,755,032 photos uploaded!

WunderBlogs® & News

Nearby

Snow Depth

Station Depth Elevation
No new snow has been reported.

Earthquake Activity

City Distance Mag. Time & Date
No recent earthquake activity has been reported nearby.
Minimum magnitude displayed is 2.5.

Coastal Water Temperatures

Place Temperature
No Stations Reporting

Nearby Weather Stations